createdAt,value
2023-04-15T00:01:19.798Z,14.50
2023-04-15T00:03:48.740Z,14.63
2023-04-15T00:06:17.385Z,14.41
2023-04-15T00:08:46.892Z,14.81
2023-04-15T00:11:15.987Z,14.50
2023-04-15T00:13:44.426Z,14.30
2023-04-15T00:16:13.004Z,14.20
2023-04-15T00:18:41.304Z,14.25
2023-04-15T00:21:09.714Z,14.16
2023-04-15T00:23:37.965Z,14.06
2023-04-15T00:26:07.855Z,14.45
2023-04-15T00:28:36.013Z,14.17
2023-04-15T00:31:04.584Z,14.24
2023-04-15T00:33:32.865Z,14.31
2023-04-15T00:36:01.761Z,14.39
2023-04-15T00:38:29.987Z,14.26
2023-04-15T00:40:58.678Z,14.28
2023-04-15T00:43:28.218Z,14.58
2023-04-15T00:45:58.585Z,14.65
2023-04-15T00:48:28.061Z,14.54
2023-04-15T00:50:56.937Z,14.26
2023-04-15T00:53:25.156Z,14.32
2023-04-15T00:55:53.752Z,14.40
2023-04-15T00:58:21.857Z,14.34
2023-04-15T01:00:54.453Z,14.75
2023-04-15T01:03:22.853Z,14.44
2023-04-15T01:05:53.064Z,14.41
2023-04-15T01:08:21.217Z,14.30
2023-04-15T01:10:49.925Z,14.33
2023-04-15T01:13:18.052Z,14.28
2023-04-15T03:30:23.400Z,13.34
2023-04-15T03:32:52.076Z,12.82
2023-04-15T03:35:20.439Z,12.80
2023-04-15T03:37:49.343Z,12.63
2023-04-15T03:40:17.589Z,12.61
2023-04-15T03:42:46.121Z,12.51
2023-04-15T03:45:14.318Z,12.41
2023-04-15T03:47:44.201Z,12.79
2023-04-15T03:50:12.571Z,12.46
2023-04-15T03:52:40.997Z,12.33
2023-04-15T03:55:10.294Z,12.48
2023-04-15T03:57:39.935Z,12.31
2023-04-15T04:00:10.667Z,12.56
2023-04-15T04:02:39.529Z,12.31
2023-04-15T04:05:10.055Z,12.62
2023-04-15T04:07:38.446Z,12.19
2023-04-15T04:10:07.972Z,12.27
2023-04-15T04:12:36.391Z,11.99
2023-04-15T04:15:04.994Z,12.11
2023-04-15T04:17:42.400Z,12.16
2023-04-15T04:20:12.502Z,12.60
2023-04-15T04:22:41.349Z,12.34
2023-04-15T04:25:11.280Z,12.60
2023-04-15T04:27:39.667Z,12.32
2023-04-15T04:30:09.200Z,12.58
2023-04-15T04:32:37.739Z,12.33
2023-04-15T04:35:06.219Z,12.54
2023-04-15T04:37:36.270Z,12.84
2023-04-15T04:40:04.868Z,12.67
2023-04-15T04:42:33.342Z,12.71
2023-04-15T04:45:01.492Z,12.86
2023-04-15T04:47:30.335Z,12.93
2023-04-15T04:49:58.519Z,13.01
2023-04-15T04:52:26.913Z,13.00
2023-04-15T04:54:56.412Z,13.52
2023-04-15T04:57:24.945Z,13.22
2023-04-15T04:59:53.230Z,13.44
2023-04-15T05:02:22.075Z,13.46
2023-04-15T05:04:50.435Z,13.58
2023-04-15T05:07:20.871Z,13.69
2023-04-15T05:09:49.196Z,13.94
2023-04-15T05:12:19.026Z,14.52
2023-04-15T05:14:47.927Z,14.39
2023-04-15T05:17:16.482Z,14.58
2023-04-15T05:19:44.762Z,14.69
2023-04-15T05:22:13.147Z,14.66
2023-04-15T05:24:41.376Z,14.81
2023-04-15T05:27:11.664Z,14.83
2023-04-15T05:29:41.183Z,15.32
2023-04-15T05:32:09.598Z,15.01
2023-04-15T05:34:37.743Z,15.17
2023-04-15T05:37:06.204Z,15.30
2023-04-15T05:39:34.617Z,15.51
2023-04-15T05:42:03.629Z,15.59
2023-04-15T05:44:31.969Z,15.80
2023-04-15T05:47:03.639Z,16.22
2023-04-15T05:49:32.021Z,17.03
2023-04-15T05:52:00.834Z,16.07
2023-04-15T05:54:29.036Z,16.06
2023-04-15T05:56:57.787Z,16.34
2023-04-15T05:59:26.000Z,16.60
2023-04-15T06:01:54.544Z,16.77
2023-04-15T06:04:24.345Z,17.32
2023-04-15T06:06:52.944Z,17.14
2023-04-15T06:09:21.371Z,17.34
2023-04-15T06:11:49.810Z,17.31
2023-04-15T06:14:18.082Z,17.54
2023-04-15T06:16:47.065Z,17.64
2023-04-15T06:19:16.040Z,18.29
2023-04-15T06:21:46.193Z,20.26
2023-04-15T06:24:14.420Z,22.15
2023-04-15T06:26:43.068Z,23.99
2023-04-15T06:29:11.406Z,25.59
2023-04-15T06:31:40.029Z,27.07
2023-04-15T06:34:08.322Z,28.19
2023-04-15T06:36:36.813Z,28.90
2023-04-15T06:39:06.520Z,29.19
2023-04-15T06:41:35.733Z,28.80
2023-04-15T06:44:03.871Z,28.81
2023-04-15T06:46:32.437Z,28.26
2023-04-15T06:49:00.786Z,27.81
2023-04-15T06:51:29.482Z,27.61
2023-04-15T06:53:58.028Z,28.79
2023-04-15T06:56:27.919Z,30.91
2023-04-15T06:58:56.267Z,31.66
2023-04-15T07:01:24.773Z,32.63
2023-04-15T07:03:53.181Z,32.90
2023-04-15T07:06:22.097Z,31.92
2023-04-15T07:08:50.488Z,30.94
2023-04-15T07:11:19.204Z,30.31
2023-04-15T07:13:48.725Z,30.14
2023-04-15T07:16:17.502Z,29.18
2023-04-15T07:18:45.793Z,28.80
2023-04-15T07:21:14.346Z,29.08
2023-04-15T07:23:43.694Z,30.13
2023-04-15T07:26:12.470Z,30.68
2023-04-15T07:28:40.681Z,31.49
2023-04-15T07:31:10.686Z,32.95
2023-04-15T07:33:38.923Z,33.40
2023-04-15T07:36:07.655Z,33.36
2023-04-15T07:38:35.913Z,33.49
2023-04-15T07:41:05.024Z,33.55
2023-04-15T07:43:33.458Z,34.08
2023-04-15T07:46:02.114Z,34.63
2023-04-15T07:48:32.105Z,35.18
2023-04-15T07:51:00.745Z,34.40
2023-04-15T07:53:28.945Z,33.61
2023-04-15T07:55:57.491Z,33.51
2023-04-15T07:58:25.894Z,33.79
2023-04-15T08:00:55.341Z,35.87
2023-04-15T08:03:23.918Z,37.87
2023-04-15T08:05:54.464Z,38.87
2023-04-15T08:08:22.682Z,38.47
2023-04-15T08:10:52.820Z,38.16
2023-04-15T08:13:22.440Z,37.84
2023-04-15T08:16:16.303Z,37.38
2023-04-15T08:18:44.596Z,36.65
2023-04-15T08:21:15.054Z,36.85
2023-04-15T08:23:43.889Z,35.68
2023-04-15T08:26:12.920Z,35.13
2023-04-15T08:28:42.107Z,37.26
2023-04-15T08:31:10.658Z,38.89
2023-04-15T08:33:38.875Z,38.93
2023-04-15T08:36:07.816Z,38.56
2023-04-15T08:38:37.634Z,39.53
2023-04-15T08:41:11.743Z,41.62
2023-04-15T08:43:50.817Z,43.54
2023-04-15T08:46:19.849Z,44.16
2023-04-15T08:48:49.430Z,44.85
2023-04-15T08:51:18.263Z,43.07
2023-04-15T08:53:48.051Z,41.07
2023-04-15T08:56:17.481Z,38.42
2023-04-15T08:58:46.197Z,37.09
2023-04-15T09:01:15.079Z,36.89
2023-04-15T09:03:43.757Z,35.71
2023-04-15T09:06:13.158Z,33.65
2023-04-15T09:08:41.477Z,33.13
2023-04-15T09:11:12.411Z,34.64
2023-04-15T09:13:40.637Z,36.85
2023-04-15T09:16:09.458Z,39.30
2023-04-15T09:18:39.863Z,41.11
2023-04-15T09:21:11.299Z,42.41
2023-04-15T09:23:41.188Z,42.55
2023-04-15T09:26:11.446Z,43.03
2023-04-15T09:28:43.689Z,43.32
2023-04-15T09:31:12.309Z,43.90
2023-04-15T09:33:56.287Z,45.44
2023-04-15T09:36:25.347Z,44.52
2023-04-15T09:38:57.622Z,43.39
2023-04-15T09:41:28.679Z,41.73
2023-04-15T09:43:57.022Z,38.02
2023-04-15T09:46:46.575Z,34.22
2023-04-15T09:49:18.325Z,30.39
2023-04-15T09:52:01.477Z,28.86
2023-04-15T09:54:47.552Z,31.36
2023-04-15T09:57:18.500Z,34.98
2023-04-15T09:59:46.760Z,36.14
2023-04-15T10:02:17.868Z,35.49
2023-04-15T10:04:50.300Z,33.15
2023-04-15T10:07:20.885Z,30.66
2023-04-15T10:09:50.092Z,31.06
2023-04-15T10:12:20.923Z,34.40
2023-04-15T10:14:57.995Z,34.64
2023-04-15T10:17:31.664Z,33.54
2023-04-15T10:20:01.161Z,31.75
2023-04-15T10:22:30.167Z,28.94
2023-04-15T10:24:58.529Z,26.47
2023-04-15T10:27:29.734Z,25.23
2023-04-15T10:29:58.603Z,25.02
2023-04-15T10:32:27.241Z,25.78
2023-04-15T10:34:55.818Z,27.06
2023-04-15T10:37:36.215Z,27.92
2023-04-15T10:40:25.776Z,28.55
2023-04-15T10:42:56.689Z,26.91
2023-04-15T10:45:28.110Z,27.33
2023-04-15T10:47:58.182Z,26.33
2023-04-15T10:50:29.922Z,25.55
2023-04-15T10:52:58.884Z,25.02
2023-04-15T10:55:28.970Z,25.38
2023-04-15T10:58:02.212Z,25.91
2023-04-15T11:00:31.594Z,24.84
2023-04-15T11:03:01.967Z,24.12
2023-04-15T11:05:51.683Z,24.53
2023-04-15T11:08:22.450Z,24.32
2023-04-15T11:10:57.974Z,24.02
2023-04-15T11:13:29.398Z,23.63
2023-04-15T11:16:02.611Z,23.91
2023-04-15T11:18:35.543Z,24.46
2023-04-15T11:21:08.310Z,23.50
2023-04-15T11:23:39.521Z,22.91
2023-04-15T11:26:12.010Z,22.35
2023-04-15T11:28:43.801Z,22.78
2023-04-15T11:31:14.860Z,22.39
2023-04-15T11:33:48.156Z,22.71
2023-04-15T11:36:16.342Z,22.75
2023-04-15T11:38:47.459Z,23.04
2023-04-15T11:41:15.866Z,23.22
2023-04-15T11:43:45.748Z,23.98
2023-04-15T11:46:14.001Z,23.53
2023-04-15T11:48:45.024Z,22.58
2023-04-15T11:51:14.033Z,20.96
2023-04-15T11:53:44.598Z,20.63
2023-04-15T11:56:18.863Z,20.89
2023-04-15T11:58:50.855Z,21.12
2023-04-15T12:01:19.804Z,21.04
2023-04-15T12:03:49.628Z,21.10
2023-04-15T12:06:20.291Z,21.72
2023-04-15T12:09:10.497Z,22.42
2023-04-15T12:11:41.500Z,22.27
2023-04-15T12:14:12.757Z,21.75
2023-04-15T12:16:48.469Z,20.67
2023-04-15T12:19:20.508Z,20.02
2023-04-15T12:21:49.653Z,20.23
2023-04-15T12:24:21.855Z,20.86
2023-04-15T12:26:51.655Z,20.73
2023-04-15T12:29:25.951Z,20.28
2023-04-15T12:31:55.573Z,19.44
2023-04-15T12:34:31.390Z,19.91
2023-04-15T12:37:01.877Z,19.71
2023-04-15T12:39:32.662Z,19.00
2023-04-15T12:42:01.735Z,19.05
2023-04-15T12:44:31.726Z,19.16
2023-04-15T12:47:00.248Z,19.10
2023-04-15T12:49:29.708Z,19.80
2023-04-15T12:52:00.059Z,20.34
2023-04-15T12:54:29.216Z,19.85
2023-04-15T12:56:57.687Z,19.66
2023-04-15T12:59:26.145Z,19.87
2023-04-15T13:01:55.859Z,20.63
2023-04-15T13:04:24.651Z,20.72
2023-04-15T13:06:53.343Z,21.08
2023-04-15T13:09:22.010Z,21.39
2023-04-15T13:11:51.195Z,21.72
2023-04-15T13:14:19.703Z,20.83
2023-04-15T13:16:47.947Z,20.52
2023-04-15T13:19:17.823Z,20.90
2023-04-15T13:21:46.157Z,20.46
2023-04-15T13:24:14.727Z,20.88
2023-04-15T13:26:43.051Z,20.43
2023-04-15T13:29:12.337Z,19.57
2023-04-15T13:31:40.713Z,20.08
2023-04-15T13:34:09.327Z,20.09
2023-04-15T13:36:38.963Z,20.21
2023-04-15T13:39:07.568Z,19.30
2023-04-15T13:41:35.795Z,19.49
2023-04-15T13:44:05.564Z,19.09
2023-04-15T13:46:34.442Z,18.86
2023-04-15T13:49:02.965Z,18.42
2023-04-15T13:51:31.100Z,18.27
2023-04-15T13:54:00.991Z,18.75
2023-04-15T13:56:29.198Z,18.50
2023-04-15T13:59:02.380Z,18.70
2023-04-15T14:01:30.815Z,18.63
2023-04-15T14:03:59.391Z,18.31
2023-04-15T14:06:28.553Z,18.09
2023-04-15T14:08:56.993Z,18.35
2023-04-15T14:11:26.706Z,18.99
2023-04-15T14:13:55.304Z,18.48
2023-04-15T14:16:23.573Z,18.39
2023-04-15T14:18:52.321Z,18.44
2023-04-15T14:21:20.875Z,17.87
2023-04-15T14:23:49.746Z,17.86
2023-04-15T14:26:17.948Z,17.80
2023-04-15T14:28:48.542Z,17.97
2023-04-15T14:31:16.880Z,17.40
2023-04-15T14:33:45.409Z,17.07
2023-04-15T14:36:13.714Z,17.12
2023-04-15T14:38:42.167Z,17.07
2023-04-15T14:41:10.762Z,17.49
2023-04-15T14:43:39.299Z,17.29
2023-04-15T14:46:09.558Z,18.29
2023-04-15T14:48:38.388Z,18.45
2023-04-15T14:51:07.168Z,18.04
2023-04-15T14:53:35.876Z,17.14
2023-04-15T14:56:04.276Z,16.74
2023-04-15T14:58:33.346Z,16.96
2023-04-15T15:01:02.058Z,16.00
2023-04-15T15:03:35.518Z,16.76
2023-04-15T15:06:03.934Z,15.70
2023-04-15T15:08:32.522Z,15.86
2023-04-15T15:11:00.841Z,16.04
2023-04-15T15:13:29.309Z,16.41
2023-04-15T15:15:58.801Z,16.60
2023-04-15T15:18:27.384Z,16.32
2023-04-15T15:20:56.998Z,17.21
2023-04-15T15:23:25.714Z,16.87
2023-04-15T15:25:54.152Z,17.08
2023-04-15T15:28:22.926Z,17.32
2023-04-15T15:30:51.108Z,17.40
2023-04-15T15:33:20.882Z,16.82
2023-04-15T15:35:49.196Z,16.61
2023-04-15T15:38:19.386Z,17.16
2023-04-15T15:40:50.701Z,16.73
2023-04-15T15:43:21.362Z,16.94
2023-04-15T15:45:51.801Z,17.08
2023-04-15T15:48:20.873Z,17.29
2023-04-15T15:50:49.066Z,17.44
2023-04-15T15:53:20.987Z,17.90
2023-04-15T15:55:49.343Z,17.27
2023-04-15T15:58:17.825Z,17.32
2023-04-15T16:00:46.138Z,17.44
2023-04-15T16:03:14.959Z,17.70
2023-04-15T16:05:43.590Z,17.56
2023-04-15T16:08:12.135Z,17.43
2023-04-15T16:10:41.757Z,18.18
2023-04-15T16:13:10.704Z,17.50
2023-04-15T16:15:39.185Z,17.72
2023-04-15T16:18:08.012Z,17.54
2023-04-15T16:20:36.648Z,17.49
2023-04-15T16:23:10.540Z,18.04
2023-04-15T16:25:38.874Z,17.78
2023-04-15T16:28:22.697Z,18.30
2023-04-15T16:30:53.828Z,18.33
2023-04-15T16:33:22.500Z,18.44
2023-04-15T16:35:51.986Z,18.41
2023-04-15T16:38:20.908Z,18.47
2023-04-15T16:40:49.164Z,18.45
2023-04-15T16:43:19.252Z,18.76
2023-04-15T16:45:51.206Z,18.24
2023-04-15T16:48:20.885Z,18.29
2023-04-15T16:50:49.371Z,18.15
2023-04-15T16:53:17.851Z,17.97
2023-04-15T16:55:46.174Z,17.87
2023-04-15T16:58:14.834Z,17.43
2023-04-15T17:00:44.506Z,17.09
2023-04-15T17:03:13.019Z,15.51
2023-04-15T17:05:42.476Z,15.08
2023-04-15T17:08:11.108Z,15.18
2023-04-15T17:10:39.328Z,14.88
2023-04-15T17:13:08.328Z,14.90
2023-04-15T17:15:36.714Z,15.17
2023-04-15T17:18:07.121Z,15.72
2023-04-15T17:20:36.118Z,15.50
2023-04-15T17:23:05.278Z,15.74
2023-04-15T17:25:33.671Z,15.54
2023-04-15T17:28:02.410Z,15.66
2023-04-15T17:30:30.890Z,15.71
2023-04-15T17:32:59.729Z,15.83
2023-04-15T17:35:29.437Z,15.88
2023-04-15T17:37:59.270Z,15.43
2023-04-15T17:40:27.656Z,13.98
2023-04-15T17:42:56.396Z,13.07
2023-04-15T17:45:26.760Z,13.14
2023-04-15T17:47:55.800Z,13.50
2023-04-15T17:50:24.218Z,13.58
2023-04-15T17:52:54.189Z,14.19
2023-04-15T17:55:22.793Z,13.99
2023-04-15T17:57:51.407Z,14.17
2023-04-15T18:00:19.690Z,14.19
2023-04-15T18:02:49.034Z,14.18
2023-04-15T18:05:18.925Z,14.25
2023-04-15T18:07:47.494Z,14.33
2023-04-15T18:10:17.152Z,14.68
2023-04-15T18:12:45.568Z,13.86
2023-04-15T18:15:14.608Z,13.67
2023-04-15T18:17:43.039Z,13.62
2023-04-15T18:20:12.877Z,13.97
2023-04-15T18:22:41.537Z,13.92
2023-04-15T18:25:10.621Z,14.14
2023-04-15T18:27:40.557Z,14.42
2023-04-15T18:30:09.928Z,14.37
2023-04-15T18:32:38.572Z,14.28
2023-04-15T18:35:07.953Z,14.65
2023-04-15T18:37:36.725Z,14.53
2023-04-15T18:40:05.435Z,14.77
2023-04-15T18:42:33.994Z,14.76
2023-04-15T18:45:03.580Z,15.18
2023-04-15T18:47:32.401Z,14.88
2023-04-15T18:50:00.793Z,14.98
2023-04-15T18:52:30.828Z,15.09
2023-04-15T18:54:59.119Z,15.05
2023-04-15T18:57:31.143Z,15.08
2023-04-15T19:00:00.835Z,15.01
2023-04-15T19:02:30.722Z,15.35
2023-04-15T19:04:59.493Z,14.87
2023-04-15T19:07:28.158Z,14.72
2023-04-15T19:09:56.456Z,14.56
2023-04-15T19:12:25.170Z,14.53
2023-04-15T19:14:53.420Z,14.58
2023-04-15T19:17:21.981Z,14.61
2023-04-15T19:19:51.892Z,15.06
2023-04-15T19:22:20.474Z,14.71
2023-04-15T19:24:48.809Z,14.75
2023-04-15T19:27:17.470Z,14.81
2023-04-15T19:29:45.743Z,14.82
2023-04-15T19:32:14.806Z,14.78
2023-04-15T19:34:43.286Z,14.83
2023-04-15T19:37:13.813Z,15.17
2023-04-15T19:39:42.126Z,14.75
2023-04-15T19:42:10.868Z,14.93
2023-04-15T19:44:42.964Z,14.85
2023-04-15T19:47:12.098Z,14.88
2023-04-15T19:49:40.602Z,14.65
2023-04-15T19:52:09.247Z,14.67
2023-04-15T19:54:39.161Z,14.99
2023-04-15T19:57:07.775Z,14.62
2023-04-15T19:59:36.348Z,14.59
2023-04-15T20:02:04.984Z,14.62
2023-04-15T20:04:34.001Z,14.63
2023-04-15T20:07:02.884Z,14.64
2023-04-15T20:09:31.170Z,14.64
2023-04-15T20:12:47.216Z,15.02
2023-04-15T20:14:49.306Z,14.73
2023-04-15T20:17:17.860Z,14.65
2023-04-15T20:19:46.022Z,14.61
2023-04-15T20:22:14.508Z,14.64
2023-04-15T20:24:42.728Z,14.61
2023-04-15T20:27:12.601Z,14.96
2023-04-15T20:29:40.922Z,14.48
2023-04-15T20:32:11.673Z,14.38
2023-04-15T20:34:40.177Z,14.31
2023-04-15T20:37:08.633Z,14.16
2023-04-15T20:39:36.805Z,14.01
2023-04-15T20:42:05.407Z,14.05
2023-04-15T20:44:35.777Z,14.48
2023-04-15T20:47:04.314Z,13.87
2023-04-15T20:49:35.043Z,14.23
2023-04-15T20:52:03.766Z,13.75
2023-04-15T20:54:32.018Z,13.63
2023-04-15T20:57:01.496Z,13.61
2023-04-15T20:59:30.068Z,13.53
2023-04-15T21:01:59.950Z,14.00
2023-04-15T21:04:28.316Z,13.60
2023-04-15T21:06:56.964Z,13.54
2023-04-15T21:09:25.945Z,13.70
2023-04-15T21:12:01.019Z,13.55
2023-04-15T21:14:30.136Z,13.35
2023-04-15T21:17:00.014Z,13.72
2023-04-15T21:19:28.249Z,13.31
2023-04-15T21:21:56.671Z,13.41
2023-04-15T21:24:24.899Z,13.46
2023-04-15T21:26:53.325Z,13.46
2023-04-15T21:29:21.652Z,13.55
2023-04-15T21:31:50.107Z,13.52
2023-04-15T21:34:19.751Z,13.94
2023-04-15T21:36:48.278Z,13.55
2023-04-15T21:39:17.217Z,13.58
2023-04-15T21:41:45.893Z,13.54
2023-04-15T21:44:15.142Z,13.40
2023-04-15T21:46:46.103Z,13.47
2023-04-15T21:49:14.766Z,13.31
2023-04-15T21:51:45.770Z,13.55
2023-04-15T21:54:13.929Z,13.13
2023-04-15T21:56:43.168Z,13.11
2023-04-15T21:59:11.332Z,13.08
2023-04-15T22:01:39.827Z,12.97
2023-04-15T22:04:08.201Z,13.01
2023-04-15T22:06:36.894Z,12.89
2023-04-15T22:09:06.547Z,13.18
2023-04-15T22:11:35.083Z,12.70
2023-04-15T22:14:03.287Z,12.71
2023-04-15T22:16:31.852Z,12.75
2023-04-15T22:18:59.970Z,12.72
2023-04-15T22:21:28.645Z,12.76
2023-04-15T22:24:38.375Z,12.66
2023-04-15T22:26:47.008Z,13.00
2023-04-15T22:29:15.170Z,12.60
2023-04-15T22:31:43.893Z,12.54
2023-04-15T22:34:14.801Z,12.56
2023-04-15T22:36:43.350Z,12.55
2023-04-15T22:39:11.522Z,12.50
2023-04-15T22:44:09.352Z,12.98
2023-04-15T22:46:38.409Z,12.60
2023-04-15T22:49:09.224Z,13.07
2023-04-15T22:51:38.374Z,12.57
2023-04-15T22:54:06.559Z,12.48
2023-04-15T22:56:35.049Z,12.45
2023-04-15T22:59:03.132Z,12.37
2023-04-15T23:01:33.030Z,12.67
2023-04-15T23:04:04.011Z,12.30
2023-04-15T23:06:37.328Z,12.27
2023-04-15T23:09:05.596Z,12.21
2023-04-15T23:11:34.118Z,12.27
2023-04-15T23:14:02.530Z,12.24
2023-04-15T23:16:32.713Z,12.62
2023-04-15T23:19:01.120Z,12.16
2023-04-15T23:21:30.035Z,12.17
2023-04-15T23:23:58.387Z,12.15
2023-04-15T23:26:27.431Z,12.10
2023-04-15T23:28:55.668Z,12.10
2023-04-15T23:31:24.385Z,12.05
2023-04-15T23:33:54.180Z,12.44
2023-04-15T23:36:22.864Z,12.12
2023-04-15T23:38:51.074Z,12.08
2023-04-15T23:41:19.500Z,12.06
2023-04-15T23:43:50.970Z,12.13
2023-04-15T23:46:21.652Z,12.09
2023-04-15T23:48:50.553Z,12.03
2023-04-15T23:51:22.490Z,12.48
2023-04-15T23:53:52.751Z,12.07
2023-04-15T23:56:22.360Z,12.13
2023-04-15T23:58:51.031Z,12.05
